Flight Track Log - Related Links

Times and Time Zones

All times are in EDT time to prevent confusion due to time zone crossing. See the N717AN flight status page for this flight to view local times or setup timezone preferences in your user account.

Time Position Orientation Groundspeed Altitude Reporting Facility
EDT Latitude Longitude Course Direction KTS MPH feet Rate Location/Type
Tue 08:28:33 PM -23.4310 -46.4720 90° East 130 150  Level FlightAware ADS-B
Tue 08:28:58 PM -23.4250 -46.4500 73° East 192 221 2,400 4,435 Climbing FlightAware ADS-B
Tue 08:29:19 PM -23.4200 -46.4320 73° East 189 217 3,400 2,400 Climbing FlightAware ADS-B
Tue 08:29:48 PM -23.4120 -46.4040 73° East 202 232 4,400 1,773 Climbing FlightAware ADS-B
Tue 08:30:03 PM -23.4070 -46.3890 70° East 221 254 4,700 1,371 Climbing FlightAware ADS-B
Tue 08:30:23 PM -23.4000 -46.3650 72° East 247 284 5,200 1,463 Climbing FlightAware ADS-B
Tue 08:30:44 PM -23.3920 -46.3400 71° East 268 308 5,700 2,000 Climbing FlightAware ADS-B
Tue 08:31:08 PM -23.3800 -46.3080 68° East 280 322 6,700 2,727 Climbing FlightAware ADS-B
Tue 08:31:28 PM -23.3610 -46.2900 41° Northeast 272 313 7,700 2,400 Climbing FlightAware ADS-B
Tue 08:31:38 PM -23.3490 -46.2830 28° Northeast 288 331 7,900 1,385 Climbing FlightAware ADS-B
Tue 08:31:54 PM -23.3310 -46.2740 25° Northeast 297 342 8,300 1,500 Climbing FlightAware ADS-B
Tue 08:32:18 PM -23.2960 -46.2600 20° North 328 377 8,900 1,500 Climbing FlightAware ADS-B
Tue 08:32:38 PM -23.2670 -46.2470 22° Northeast 345 397 9,400 1,200 Climbing FlightAware ADS-B
Tue 08:32:53 PM -23.2430 -46.2370 21° North 364 419 9,600 1,615 Climbing FlightAware ADS-B
Tue 08:33:30 PM -23.1830 -46.2150 19° North 385 443 10,800 2,000 Climbing FlightAware ADS-B
Tue 08:33:50 PM -23.1460 -46.2100 North 399 459 11,500 2,509 Climbing FlightAware ADS-B
Tue 08:34:25 PM -23.0790 -46.2130 358° North 404 465 13,100 2,585 Climbing FlightAware ADS-B
Tue 08:34:55 PM -23.0240 -46.2220 351° North 422 486 14,300 2,818 Climbing FlightAware ADS-B
Tue 08:35:31 PM -22.9540 -46.2330 352° North 410 472 16,200 2,560 Climbing FlightAware ADS-B
Tue 08:36:10 PM -22.8780 -46.2470 350° North 435 501 17,500 2,240 Climbing FlightAware ADS-B
Tue 08:36:46 PM -22.8050 -46.2570 353° North 441 507 19,000 2,361 Climbing FlightAware ADS-B
Tue 08:37:11 PM -22.7550 -46.2650 352° North 438 504 19,900 2,200 Climbing FlightAware ADS-B
Tue 08:37:46 PM -22.6800 -46.2760 352° North 454 522 21,200 2,123 Climbing FlightAware ADS-B
Tue 08:38:16 PM -22.6190 -46.2850 352° North 452 520 22,200 2,215 Climbing FlightAware ADS-B
Tue 08:38:51 PM -22.5420 -46.2970 352° North 456 525 23,600 2,132 Climbing FlightAware ADS-B
Tue 08:39:32 PM -22.4560 -46.3110 351° North 471 542 24,900 1,909 Climbing FlightAware ADS-B
Tue 08:39:57 PM -22.4020 -46.3190 352° North 467 537 25,700 1,714 Climbing FlightAware ADS-B
Tue 08:40:42 PM -22.3010 -46.3340 352° North 489 563 26,900 1,624 Climbing FlightAware ADS-B
Tue 08:41:22 PM -22.2100 -46.3480 352° North 500 575 28,000 1,446 Climbing FlightAware ADS-B
Tue 08:42:05 PM -22.1350 -46.3600 352° North 505 581 28,900 1,829 Climbing FlightAware ADS-B
Tue 08:42:44 PM -22.0190 -46.3780 352° North 504 580 30,500 2,294 Climbing FlightAware ADS-B
Tue 08:43:13 PM -21.9530 -46.3880 352° North 500 575 31,500 1,781 Climbing FlightAware ADS-B
Tue 08:43:48 PM -21.8730 -46.4000 352° North 501 577 32,400 1,286 Climbing FlightAware ADS-B
Tue 08:44:23 PM -21.7910 -46.4120 352° North 500 575 33,000 480 Climbing FlightAware ADS-B
Tue 08:45:03 PM -21.6990 -46.4260 352° North 503 579 33,000  Level FlightAware ADS-B
Tue 08:45:33 PM -21.6280 -46.4370 352° North 505 581 33,000  Level FlightAware ADS-B
Tue 08:46:08 PM -21.5490 -46.4490 352° North 505 581 33,000  Level FlightAware ADS-B
Tue 08:46:48 PM -21.4570 -46.4630 352° North 505 581 33,000  Level FlightAware ADS-B
Tue 08:47:23 PM -21.3770 -46.4750 352° North 505 581 33,000  Level FlightAware ADS-B
Tue 08:47:53 PM -21.3060 -46.4860 352° North 505 581 33,000  Level FlightAware ADS-B
Tue 08:48:33 PM -21.2130 -46.5000 352° North 506 582 33,000  Level FlightAware ADS-B
Tue 08:49:03 PM -21.1420 -46.5110 352° North 506 582 33,000  Level FlightAware ADS-B
Tue 08:49:38 PM -21.0610 -46.5230 352° North 507 583 33,000  Level FlightAware ADS-B
Tue 08:50:14 PM -20.9790 -46.5350 352° North 500 575 33,000  Level FlightAware ADS-B
Tue 08:50:53 PM -20.8850 -46.5500 352° North 507 583 33,000  Level FlightAware ADS-B
Tue 08:51:26 PM -20.8090 -46.5610 352° North 507 583 33,000  Level FlightAware ADS-B
Tue 08:52:01 PM -20.7250 -46.5740 352° North 507 583 33,000  Level FlightAware ADS-B
Tue 08:52:39 PM -20.6380 -46.5870 352° North 506 582 33,000  Level FlightAware ADS-B
Tue 08:53:11 PM -20.5610 -46.5980 352° North 506 582 33,000  Level FlightAware ADS-B
Tue 08:53:47 PM -20.4790 -46.6110 352° North 506 582 33,000  Level FlightAware ADS-B
Tue 08:54:21 PM -20.4000 -46.6260 350° North 505 581 33,000  Level FlightAware ADS-B
Tue 08:54:57 PM -20.3180 -46.6420 350° North 504 580 33,000  Level FlightAware ADS-B
Tue 08:55:33 PM -20.2350 -46.6570 350° North 505 581 33,000  Level FlightAware ADS-B
Tue 08:56:05 PM -20.1600 -46.6710 350° North 507 583 33,000  Level FlightAware ADS-B
Tue 08:56:41 PM -20.0770 -46.6860 350° North 509 586 33,000  Level FlightAware ADS-B
Tue 08:57:17 PM -19.9930 -46.7010 350° North 511 588 33,000  Level FlightAware ADS-B
Tue 08:57:53 PM -19.9090 -46.7160 350° North 512 589 33,000  Level FlightAware ADS-B
Tue 08:58:25 PM -19.8330 -46.7290 351° North 512 589 33,000  Level FlightAware ADS-B
Tue 08:59:02 PM -19.7500 -46.7440 350° North 511 588 33,000  Level FlightAware ADS-B
Tue 08:59:37 PM -19.6650 -46.7600 350° North 511 588 33,000  Level FlightAware ADS-B
Tue 09:00:01 PM -19.6100 -46.7700 350° North 512 589 33,000  Level FlightAware ADS-B
Tue 09:00:46 PM -19.5040 -46.7890 350° North 513 590 33,000  Level FlightAware ADS-B
Tue 09:01:23 PM -19.4160 -46.8040 351° North 513 590 33,000  Level FlightAware ADS-B
Tue 09:01:55 PM -19.3410 -46.8180 350° North 514 592 33,000  Level FlightAware ADS-B
Tue 09:02:33 PM -19.2650 -46.8320 350° North 513 590 33,000  Level FlightAware ADS-B
Tue 09:03:11 PM -19.1630 -46.8490 351° North 510 587 33,000  Level FlightAware ADS-B
Tue 09:03:47 PM -19.0790 -46.8620 352° North 508 585 33,000  Level FlightAware ADS-B
Tue 09:04:19 PM -19.0050 -46.8730 352° North 507 583 33,000  Level FlightAware ADS-B
Tue 09:04:55 PM -18.9220 -46.8860 352° North 506 582 33,000  Level FlightAware ADS-B
Tue 09:05:32 PM -18.8360 -46.8990 352° North 507 583 33,000  Level FlightAware ADS-B
Tue 09:06:01 PM -18.7690 -46.9100 351° North 507 583 33,000  Level FlightAware ADS-B
Tue 09:06:41 PM -18.6730 -46.9230 353° North 507 583 33,000  Level FlightAware ADS-B
Tue 09:07:13 PM -18.5970 -46.9330 353° North 507 583 33,000  Level FlightAware ADS-B
Tue 09:07:56 PM -18.5030 -46.9460 353° North 508 585 33,000  Level FlightAware ADS-B
Tue 09:08:29 PM -18.4240 -46.9560 353° North 509 586 33,000  Level FlightAware ADS-B
Tue 09:09:05 PM -18.3370 -46.9680 353° North 509 586 33,000  Level FlightAware ADS-B
Tue 09:09:43 PM -18.2480 -46.9800 353° North 510 587 33,000  Level FlightAware ADS-B
Tue 09:10:15 PM -18.1720 -46.9900 353° North 510 587 33,000  Level FlightAware ADS-B
Tue 09:10:51 PM -18.0880 -47.0010 353° North 510 587 33,000  Level FlightAware ADS-B
Tue 09:11:27 PM -18.0030 -47.0120 353° North 511 588 33,000  Level FlightAware ADS-B
Tue 09:12:04 PM -17.9180 -47.0240 352° North 511 588 33,000  Level FlightAware ADS-B
Tue 09:12:35 PM -17.8450 -47.0340 353° North 510 587 33,000  Level FlightAware ADS-B
Tue 09:13:11 PM -17.7580 -47.0450 353° North 511 588 33,000  Level FlightAware ADS-B
Tue 09:13:49 PM -17.6700 -47.0570 353° North 511 588 33,000  Level FlightAware ADS-B
Tue 09:14:21 PM -17.5940 -47.0670 353° North 510 587 33,000  Level FlightAware ADS-B
Tue 09:14:55 PM -17.5130 -47.0770 353° North 509 586 33,000  Level FlightAware ADS-B
Tue 09:15:50 PM -17.3970 -47.0940 352° North 509 586 33,000  Level FlightAware ADS-B
Tue 09:16:26 PM -17.3260 -47.1040 352° North 509 586 33,000  Level FlightAware ADS-B
Tue 09:17:10 PM -17.2060 -47.1220 352° North 512 589 33,000  Level FlightAware ADS-B
Tue 09:17:45 PM -17.1140 -47.1340 353° North 514 592 33,000  Level FlightAware ADS-B
Tue 09:18:27 PM -17.0270 -47.1480 351° North 514 592 33,000  Level FlightAware ADS-B
Tue 09:18:47 PM -16.9730 -47.1650 343° North 509 586 33,000  Level FlightAware ADS-B
Tue 09:19:17 PM -16.9080 -47.2020 331° Northwest 509 586 33,000  Level FlightAware ADS-B
Tue 09:19:55 PM -16.8320 -47.2470 330° Northwest 507 583 33,000  Level FlightAware ADS-B
Tue 09:20:37 PM -16.7460 -47.2970 331° Northwest 507 583 33,000  Level FlightAware ADS-B
Tue 09:21:12 PM -16.6740 -47.3390 331° Northwest 506 582 33,000  Level FlightAware ADS-B
Tue 09:21:52 PM -16.5910 -47.3870 331° Northwest 506 582 33,000  Level FlightAware ADS-B
Tue 09:22:07 PM -16.5620 -47.4040 331° Northwest 505 581 33,000 295 Level FlightAware ADS-B
Tue 09:22:53 PM -16.4730 -47.4550 331° Northwest 501 577 33,300 494 Climbing FlightAware ADS-B
Tue 09:23:32 PM -16.3880 -47.5040 331° Northwest 496 571 33,700 486 Climbing FlightAware ADS-B
Tue 09:24:07 PM -16.3200 -47.5430 331° Northwest 494 568 33,900 277 Climbing FlightAware ADS-B
Tue 09:24:37 PM -16.2590 -47.5790 330° Northwest 495 570 34,000 86 Climbing FlightAware ADS-B
Tue 09:25:17 PM -16.1790 -47.6250 331° Northwest 496 571 34,000  Level FlightAware ADS-B
Tue 09:25:52 PM -16.1070 -47.6660 331° Northwest 496 571 34,000  Level FlightAware ADS-B
Tue 09:26:22 PM -16.0470 -47.7010 331° Northwest 496 571 34,000  Level FlightAware ADS-B
Tue 09:26:57 PM -15.9760 -47.7420 331° Northwest 496 571 34,000  Level FlightAware ADS-B
Tue 09:27:37 PM -15.8960 -47.7870 332° Northwest 496 571 34,000  Level FlightAware ADS-B
Tue 09:28:07 PM -15.8360 -47.8220 331° Northwest 495 570 34,000  Level FlightAware ADS-B
Tue 09:28:42 PM -15.7660 -47.8620 331° Northwest 495 570 34,000  Level FlightAware ADS-B
Tue 09:29:22 PM -15.6860 -47.9080 331° Northwest 493 567 34,000  Level FlightAware ADS-B
Tue 09:29:58 PM -15.6150 -47.9490 331° Northwest 492 566 34,000  Level FlightAware ADS-B
Tue 09:30:28 PM -15.5570 -47.9820 331° Northwest 491 565 34,000  Level FlightAware ADS-B
Tue 09:31:07 PM -15.4760 -48.0280 331° Northwest 491 565 34,000  Level FlightAware ADS-B
Tue 09:31:42 PM -15.4060 -48.0680 331° Northwest 488 562 34,000  Level FlightAware ADS-B
Tue 09:32:12 PM -15.3500 -48.1000 331° Northwest 487 560 34,000  Level FlightAware ADS-B
Tue 09:32:47 PM -15.2780 -48.1410 331° Northwest 486 559 34,000  Level FlightAware ADS-B
Tue 09:33:22 PM -15.2120 -48.1790 331° Northwest 486 559 34,000  Level FlightAware ADS-B
Tue 09:33:59 PM -15.1400 -48.2200 331° Northwest 486 559 34,000  Level FlightAware ADS-B
Tue 09:34:37 PM -15.0610 -48.2650 331° Northwest 487 560 34,000  Level FlightAware ADS-B
Tue 09:35:07 PM -15.0010 -48.2990 331° Northwest 486 559 34,000  Level FlightAware ADS-B
Tue 09:35:47 PM -14.9240 -48.3430 331° Northwest 487 560 34,000  Level FlightAware ADS-B
Tue 09:36:22 PM -14.8550 -48.3820 331° Northwest 487 560 34,000  Level FlightAware ADS-B
Tue 09:37:02 PM -14.7780 -48.4260 331° Northwest 487 560 34,000  Level FlightAware ADS-B
Tue 09:37:47 PM -14.6860 -48.4780 331° Northwest 484 557 34,000  Level FlightAware ADS-B
Tue 09:38:27 PM -14.6110 -48.5200 332° Northwest 485 558 34,000  Level FlightAware ADS-B
Tue 09:39:07 PM -14.5320 -48.5650 331° Northwest 485 558 34,000  Level FlightAware ADS-B
Tue 09:39:55 PM -14.4520 -48.6110 331° Northwest 485 558 34,000  Level FlightAware ADS-B
Tue 09:40:33 PM -14.3880 -48.6470 331° Northwest 485 558 34,000  Level FlightAware ADS-B
Tue 09:41:09 PM -14.3280 -48.6820 331° Northwest 485 558 34,000  Level FlightAware ADS-B
Tue 09:41:45 PM -14.2680 -48.7160 331° Northwest 485 558 34,000  Level FlightAware ADS-B
Tue 09:42:40 PM -14.1770 -48.7680 331° Northwest 485 558 34,000  Level FlightAware ADS-B
Tue 09:43:16 PM -14.1160 -48.8030 331° Northwest 485 558 34,000  Level FlightAware ADS-B
Tue 09:43:53 PM -14.0550 -48.8380 331° Northwest 485 558 34,000  Level FlightAware ADS-B
Tue 09:44:31 PM -13.9910 -48.8740 331° Northwest 485 558 34,000  Level FlightAware ADS-B
Tue 09:45:07 PM -13.9310 -48.9080 331° Northwest 485 558 34,000  Level FlightAware ADS-B
Tue 09:45:43 PM -13.8710 -48.9430 330° Northwest 485 558 34,000  Level FlightAware ADS-B
Tue 09:46:20 PM -13.8100 -48.9780 331° Northwest 485 558 34,000  Level FlightAware ADS-B
Tue 09:46:56 PM -13.7500 -49.0120 331° Northwest 485 558 34,000  Level FlightAware ADS-B
Tue 09:47:32 PM -13.6890 -49.0470 331° Northwest 485 558 34,000  Level FlightAware ADS-B
Tue 09:48:08 PM -13.6290 -49.0810 331° Northwest 485 558 34,000  Level FlightAware ADS-B
Tue 09:48:45 PM -13.5680 -49.1160 331° Northwest 485 558 34,000  Level FlightAware ADS-B
Tue 09:49:21 PM -13.5080 -49.1500 331° Northwest 485 558 34,000  Level FlightAware ADS-B
Tue 09:51:00 PM -13.3139 -49.2294 338° Northwest  Level Estimated
Tue 09:52:00 PM -13.1962 -49.2775 338° Northwest  Level Estimated
Tue 09:53:00 PM -13.0785 -49.3255 338° Northwest  Level Estimated
Tue 09:54:00 PM -12.9608 -49.3735 338° Northwest  Level Estimated
Tue 09:55:00 PM -12.8431 -49.4214 338° Northwest  Level Estimated
Tue 09:56:00 PM -12.7254 -49.4693 338° Northwest  Level Estimated
Tue 09:57:00 PM -12.6077 -49.5171 338° Northwest  Level Estimated
Tue 09:58:00 PM -12.4900 -49.5649 338° Northwest  Level Estimated
Tue 09:59:00 PM -12.3723 -49.6127 338° Northwest  Level Estimated
Tue 10:00:00 PM -12.2545 -49.6604 338° Northwest  Level Estimated
Tue 10:01:00 PM -12.1368 -49.7080 338° Northwest  Level Estimated
Tue 10:01:29 PM -11.8870 -50.0430 338° Northwest 474 545 34,000  Level FlightAware ADS-B
Tue 10:01:59 PM -11.8310 -50.0740 332° Northwest 474 545 34,000  Level FlightAware ADS-B
Tue 10:02:38 PM -11.7680 -50.1100 331° Northwest 474 545 34,000  Level FlightAware ADS-B
Tue 10:03:35 PM -11.6650 -50.1650 332° Northwest 474 545 34,000  Level FlightAware ADS-B
Tue 10:04:18 PM -11.5790 -50.2130 331° Northwest 474 545 34,000  Level FlightAware ADS-B
Tue 10:04:54 PM -11.5210 -50.2470 330° Northwest 474 545 34,000  Level FlightAware ADS-B
Tue 10:05:30 PM -11.4620 -50.2800 331° Northwest 474 545 34,000  Level FlightAware ADS-B
Tue 10:06:14 PM -11.3620 -50.3320 332° Northwest 474 545 34,000  Level FlightAware ADS-B
Tue 10:06:46 PM -11.2750 -50.3800 332° Northwest 473 544 34,000  Level FlightAware ADS-B
Tue 10:07:24 PM -11.2140 -50.4130 332° Northwest 473 544 34,000  Level FlightAware ADS-B
Tue 10:08:19 PM -11.1300 -50.4600 331° Northwest 473 544 34,000  Level FlightAware ADS-B
Tue 10:08:55 PM -11.0720 -50.4930 331° Northwest 473 544 34,000  Level FlightAware ADS-B
Tue 10:09:19 PM -10.9940 -50.5340 332° Northwest 474 545 34,000  Level FlightAware ADS-B
Tue 10:10:05 PM -10.8940 -50.5890 332° Northwest 475 547 34,000  Level FlightAware ADS-B
Tue 10:10:41 PM -10.8370 -50.6210 331° Northwest 475 547 34,000  Level FlightAware ADS-B
Tue 10:11:17 PM -10.7780 -50.6540 331° Northwest 475 547 34,000  Level FlightAware ADS-B
Tue 10:11:53 PM -10.7190 -50.6870 331° Northwest 475 547 34,000  Level FlightAware ADS-B
Tue 10:12:31 PM -10.6570 -50.7220 331° Northwest 475 547 34,000  Level FlightAware ADS-B
Tue 10:13:09 PM -10.5950 -50.7570 331° Northwest 475 547 34,000  Level FlightAware ADS-B
Tue 10:14:43 PM -10.3870 -50.8660 332° Northwest 477 549 34,000  Level FlightAware ADS-B
Tue 10:15:23 PM -10.2710 -50.9270 333° Northwest 479 551 34,000  Level FlightAware ADS-B
Tue 10:16:02 PM -10.2060 -50.9610 333° Northwest 479 551 34,000  Level FlightAware ADS-B
Tue 10:16:38 PM -10.1450 -50.9920 333° Northwest 479 551 34,000  Level FlightAware ADS-B
Tue 10:17:15 PM -10.0830 -51.0240 333° Northwest 479 551 34,000  Level FlightAware ADS-B
Tue 10:17:52 PM -10.0210 -51.0570 332° Northwest 479 551 34,000  Level FlightAware ADS-B
Tue 10:18:28 PM -9.9610 -51.0880 333° Northwest 479 551 34,000  Level FlightAware ADS-B
Tue 10:19:04 PM -9.9000 -51.1190 333° Northwest 479 551 34,000  Level FlightAware ADS-B
Tue 10:19:41 PM -9.8380 -51.1510 333° Northwest 479 551 34,000  Level FlightAware ADS-B
Tue 10:20:25 PM -9.7640 -51.1890 333° Northwest 479 551 34,000  Level FlightAware ADS-B
Tue 10:20:59 PM -9.7070 -51.2190 333° Northwest 479 551 34,000  Level FlightAware ADS-B
Tue 10:21:36 PM -9.6450 -51.2510 333° Northwest 479 551 34,000  Level FlightAware ADS-B
Tue 10:22:06 PM -9.5950 -51.2770 333° Northwest 479 551 34,000  Level FlightAware ADS-B
Tue 10:22:42 PM -9.5340 -51.3080 333° Northwest 479 551 34,000  Level FlightAware ADS-B
Tue 10:23:18 PM -9.4740 -51.3390 333° Northwest 479 551 34,000  Level FlightAware ADS-B
Tue 10:23:54 PM -9.4130 -51.3710 333° Northwest 479 551 34,000  Level FlightAware ADS-B
Tue 10:24:30 PM -9.3530 -51.4020 333° Northwest 479 551 34,000  Level FlightAware ADS-B
Tue 10:25:06 PM -9.2930 -51.4330 333° Northwest 479 551 34,000 14 Level FlightAware ADS-B
Tue 10:27:00 PM -9.0682 -51.5199 339° North  Level Estimated
Tue 10:28:00 PM -8.9499 -51.5655 339° North  Level Estimated
Tue 10:29:00 PM -8.8315 -51.6112 339° North  Level Estimated
Tue 10:30:00 PM -8.7132 -51.6568 339° North  Level Estimated
Tue 10:31:00 PM -8.5949 -51.7024 339° North  Level Estimated
Tue 10:32:00 PM -8.4765 -51.7479 339° North  Level Estimated
Tue 10:33:00 PM -8.3582 -51.7934 339° North  Level Estimated
Tue 10:34:00 PM -8.2398 -51.8389 339° North  Level Estimated
Tue 10:35:00 PM -8.1215 -51.8844 339° North  Level Estimated
Tue 10:36:00 PM -8.0031 -51.9299 339° North  Level Estimated
Tue 10:37:00 PM -7.8847 -51.9753 339° North  Level Estimated
Tue 10:38:00 PM -7.7664 -52.0207 339° North  Level Estimated
Tue 10:39:00 PM -7.6480 -52.0660 339° North  Level Estimated
Tue 10:40:00 PM -7.5296 -52.1114 339° North  Level Estimated
Tue 10:41:00 PM -7.4112 -52.1567 339° North  Level Estimated
Tue 10:42:00 PM -7.2928 -52.2020 339° North  Level Estimated
Tue 10:43:00 PM -7.1744 -52.2472 339° North  Level Estimated
Tue 10:44:00 PM -7.0560 -52.2925 339° North  Level Estimated
Tue 10:45:00 PM -6.9376 -52.3377 339° North  Level Estimated
Tue 10:46:00 PM -6.8192 -52.3829 339° North  Level Estimated
Tue 10:47:00 PM -6.7008 -52.4281 339° North  Level Estimated
Tue 10:48:00 PM -6.5824 -52.4732 339° North  Level Estimated
Tue 10:49:00 PM -6.4640 -52.5184 339° North  Level Estimated
Tue 10:50:00 PM -6.3455 -52.5635 339° North  Level Estimated
Tue 10:51:00 PM -6.2271 -52.6086 339° North  Level Estimated
Tue 10:52:00 PM -6.1087 -52.6536 339° North  Level Estimated
Tue 10:53:00 PM -5.9902 -52.6987 339° North  Level Estimated
Tue 10:54:00 PM -5.8718 -52.7437 339° North  Level Estimated
Tue 10:55:00 PM -5.7533 -52.7887 339° North  Level Estimated
Tue 10:56:00 PM -5.6349 -52.8337 339° North  Level Estimated
Tue 10:57:00 PM -5.5164 -52.8787 339° North  Level Estimated
Tue 10:58:00 PM -5.3980 -52.9237 339° North  Level Estimated
Tue 10:59:00 PM -5.2795 -52.9686 339° North  Level Estimated
Tue 11:00:00 PM -5.1611 -53.0135 339° North  Level Estimated
Tue 11:01:00 PM -5.0426 -53.0584 339° North  Level Estimated
Tue 11:02:00 PM -4.9241 -53.1033 339° North  Level Estimated
Tue 11:03:00 PM -4.8057 -53.1482 339° North  Level Estimated
Tue 11:04:00 PM -4.6872 -53.1931 339° North  Level Estimated
Tue 11:05:00 PM -4.5687 -53.2379 339° North  Level Estimated
Tue 11:06:00 PM -4.4502 -53.2827 339° North  Level Estimated
Tue 11:07:00 PM -4.3317 -53.3275 339° North  Level Estimated
Tue 11:08:00 PM -4.2133 -53.3723 339° North  Level Estimated
Tue 11:09:00 PM -4.0948 -53.4171 339° North  Level Estimated
Tue 11:10:00 PM -3.9763 -53.4619 339° North  Level Estimated
Tue 11:11:00 PM -3.8578 -53.5066 339° North  Level Estimated
Tue 11:12:00 PM -3.7393 -53.5514 339° North  Level Estimated
Tue 11:13:00 PM -3.6208 -53.5961 339° North  Level Estimated
Tue 11:14:00 PM -3.5023 -53.6409 339° North  Level Estimated
Tue 11:15:00 PM -3.3838 -53.6856 339° North  Level Estimated
Tue 11:16:00 PM -3.2653 -53.7303 339° North  Level Estimated
Tue 11:17:00 PM -3.1468 -53.7749 339° North  Level Estimated
Tue 11:18:00 PM -3.0283 -53.8196 339° North  Level Estimated
Tue 11:19:00 PM -2.9097 -53.8643 339° North  Level Estimated
Tue 11:20:00 PM -2.7899 -53.9095 339° North  Level Estimated
Tue 11:21:00 PM -2.6701 -53.9546 339° North  Level Estimated
Tue 11:22:00 PM -2.5503 -53.9997 339° North  Level Estimated
Tue 11:23:00 PM -2.4305 -54.0448 339° North  Level Estimated
Tue 11:24:00 PM -2.3107 -54.0900 339° North  Level Estimated
Tue 11:25:00 PM -2.1909 -54.1351 339° North  Level Estimated
Tue 11:26:00 PM -2.0711 -54.1802 339° North  Level Estimated
Tue 11:27:00 PM -1.9512 -54.2253 339° North  Level Estimated
Tue 11:28:00 PM -1.8314 -54.2703 339° North  Level Estimated
Tue 11:29:00 PM -1.7116 -54.3154 339° North  Level Estimated
Tue 11:30:00 PM -1.5918 -54.3605 339° North  Level Estimated
Tue 11:31:00 PM -1.4720 -54.4056 339° North  Level Estimated
Tue 11:32:00 PM -1.3521 -54.4506 339° North  Level Estimated
Tue 11:33:00 PM -1.2323 -54.4957 339° North  Level Estimated
Tue 11:34:00 PM -1.1125 -54.5407 339° North  Level Estimated
Tue 11:35:00 PM -0.9927 -54.5858 339° North  Level Estimated
Tue 11:36:00 PM -0.8728 -54.6309 339° North  Level Estimated
Tue 11:37:00 PM -0.7530 -54.6759 339° North  Level Estimated
Tue 11:38:00 PM -0.6332 -54.7209 339° North  Level Estimated
Tue 11:39:00 PM -0.5134 -54.7660 339° North  Level Estimated
Tue 11:40:00 PM -0.3935 -54.8110 339° North  Level Estimated
Tue 11:41:00 PM -0.2737 -54.8561 339° North  Level Estimated
Tue 11:42:00 PM -0.1539 -54.9011 339° North  Level Estimated
Tue 11:43:00 PM -0.0340 -54.9461 339° North  Level Estimated
Tue 11:44:00 PM 0.0858 -54.9912 339° North  Level Estimated
Tue 11:45:00 PM 0.2056 -55.0362 339° North  Level Estimated
Tue 11:46:00 PM 0.3255 -55.0813 339° North  Level Estimated
Tue 11:47:00 PM 0.4453 -55.1263 339° North  Level Estimated
Tue 11:48:00 PM 0.5651 -55.1713 339° North  Level Estimated
Tue 11:49:00 PM 0.6849 -55.2164 339° North  Level Estimated
Tue 11:50:00 PM 0.8048 -55.2614 339° North  Level Estimated
Tue 11:51:00 PM 0.9246 -55.3065 339° North  Level Estimated
Tue 11:52:00 PM 1.0444 -55.3515 339° North  Level Estimated
Tue 11:53:00 PM 1.1643 -55.3966 339° North  Level Estimated
Tue 11:54:00 PM 1.2841 -55.4416 339° North  Level Estimated
Tue 11:55:00 PM 1.4039 -55.4867 339° North  Level Estimated
Tue 11:56:00 PM 1.5237 -55.5318 339° North  Level Estimated
Tue 11:57:00 PM 1.6435 -55.5768 339° North  Level Estimated
Tue 11:58:00 PM 1.7634 -55.6219 339° North  Level Estimated
Tue 11:59:00 PM 1.8832 -55.6670 339° North  Level Estimated
Wed 12:00:00 AM 2.0030 -55.7121 339° North  Level Estimated
Wed 12:01:00 AM 2.1228 -55.7572 339° North  Level Estimated
Wed 12:02:00 AM 2.2426 -55.8023 339° North  Level Estimated
Wed 12:03:00 AM 2.3624 -55.8474 339° North  Level Estimated
Wed 12:04:00 AM 2.4823 -55.8925 339° North  Level Estimated
Wed 12:05:00 AM 2.6021 -55.9376 339° North  Level Estimated
Wed 12:06:00 AM 2.7219 -55.9828 339° North  Level Estimated
Wed 12:07:00 AM 2.8417 -56.0279 339° North  Level Estimated
Wed 12:08:00 AM 2.9615 -56.0731 339° North  Level Estimated
Wed 12:09:00 AM 3.0813 -56.1182 339° North  Level Estimated
Wed 12:10:00 AM 3.2011 -56.1634 339° North  Level Estimated
Wed 12:11:00 AM 3.3209 -56.2086 339° North  Level Estimated
Wed 12:12:00 AM 3.4407 -56.2538 339° North  Level Estimated
Wed 12:13:00 AM 3.5605 -56.2990 339° North  Level Estimated
Wed 12:14:00 AM 3.6803 -56.3442 339° North  Level Estimated
Wed 12:15:00 AM 3.8001 -56.3894 339° North  Level Estimated
Wed 12:16:00 AM 3.9199 -56.4347 339° North  Level Estimated
Wed 12:17:00 AM 4.0397 -56.4799 339° North  Level Estimated
Wed 12:18:00 AM 4.1594 -56.5252 339° North  Level Estimated
Wed 12:19:00 AM 4.2792 -56.5705 339° North  Level Estimated
Wed 12:20:00 AM 4.3990 -56.6158 339° North  Level Estimated
Wed 12:21:00 AM 4.5188 -56.6611 339° North  Level Estimated
Wed 12:22:00 AM 4.6385 -56.7064 339° North  Level Estimated
Wed 12:23:00 AM 4.7583 -56.7518 339° North  Level Estimated
Wed 12:24:00 AM 4.8781 -56.7971 339° North  Level Estimated
Wed 12:25:00 AM 4.9978 -56.8425 339° North  Level Estimated
Wed 12:26:00 AM 5.1176 -56.8879 339° North  Level Estimated
Wed 12:27:00 AM 5.2374 -56.9333 339° North  Level Estimated
Wed 12:28:00 AM 5.3571 -56.9787 339° North  Level Estimated
Wed 12:29:00 AM 5.4769 -57.0242 339° North  Level Estimated
Wed 12:30:00 AM 5.5966 -57.0696 339° North  Level Estimated
Wed 12:31:00 AM 5.7164 -57.1151 339° North  Level Estimated
Wed 12:32:00 AM 5.8361 -57.1606 339° North  Level Estimated
Wed 12:33:00 AM 5.9559 -57.2061 339° North  Level Estimated
Wed 12:34:00 AM 6.0756 -57.2517 339° North  Level Estimated
Wed 12:35:00 AM 6.1953 -57.2972 339° North  Level Estimated
Wed 12:36:00 AM 6.3151 -57.3428 339° North  Level Estimated
Wed 12:37:00 AM 6.4348 -57.3884 339° North  Level Estimated
Wed 12:38:00 AM 6.5545 -57.4340 339° North  Level Estimated
Wed 12:39:00 AM 6.6742 -57.4796 339° North  Level Estimated
Wed 12:40:00 AM 6.7939 -57.5253 339° North  Level Estimated
Wed 12:41:00 AM 6.9136 -57.5710 339° North  Level Estimated
Wed 12:42:00 AM 7.0333 -57.6167 339° North  Level Estimated
Wed 12:43:00 AM 7.1530 -57.6624 339° North  Level Estimated
Wed 12:43:54 AM 8.2170 -59.1010 339° North 491 565 36,000  Level FlightAware ADS-B
Wed 12:44:00 AM 7.2727 -57.7082 339° North  Level Estimated
Wed 12:44:27 AM 8.2770 -59.1320 333° Northwest 491 565 36,000  Level FlightAware ADS-B
Wed 12:45:05 AM 8.3620 -59.1730 334° Northwest 491 565 36,000  Level FlightAware ADS-B
Wed 12:45:37 AM 8.4290 -59.2060 334° Northwest 491 565 36,000  Level FlightAware ADS-B
Wed 12:46:14 AM 8.5020 -59.2410 335° Northwest 491 565 36,000  Level FlightAware ADS-B
Wed 12:46:49 AM 8.5740 -59.2770 334° Northwest 490 564 36,000  Level FlightAware ADS-B
Wed 12:47:21 AM 8.6410 -59.3100 334° Northwest 490 564 36,000  Level FlightAware ADS-B
Wed 12:47:59 AM 8.7190 -59.3480 334° Northwest 488 562 36,000  Level FlightAware ADS-B
Wed 12:48:35 AM 8.7910 -59.3840 334° Northwest 487 560 36,000  Level FlightAware ADS-B
Wed 12:49:07 AM 8.8560 -59.4160 334° Northwest 486 559 36,000  Level FlightAware ADS-B
Wed 12:49:43 AM 8.9250 -59.4600 328° Northwest 478 550 36,000  Level FlightAware ADS-B
Wed 12:50:21 AM 8.9800 -59.5230 311° West 474 545 36,000  Level FlightAware ADS-B
Wed 12:50:53 AM 9.0250 -59.5790 309° West 474 545 36,000  Level FlightAware ADS-B
Wed 12:51:25 AM 9.0680 -59.6330 309° West 473 544 36,000  Level FlightAware ADS-B
Wed 12:52:04 AM 9.1210 -59.7000 309° West 475 547 36,000  Level FlightAware ADS-B
Wed 12:52:37 AM 9.1670 -59.7580 309° West 475 547 36,000  Level FlightAware ADS-B
Wed 12:53:13 AM 9.2160 -59.8190 309° West 474 545 36,000  Level FlightAware ADS-B
Wed 12:53:49 AM 9.2670 -59.8820 309° West 475 547 36,000  Level FlightAware ADS-B
Wed 12:54:25 AM 9.3180 -59.9450 309° West 474 545 36,000  Level FlightAware ADS-B
Wed 12:54:57 AM 9.3620 -60.0000 309° West 475 547 36,000  Level FlightAware ADS-B
Wed 12:55:35 AM 9.4090 -60.0710 304° West 473 544 36,000  Level FlightAware ADS-B
Wed 12:56:07 AM 9.4400 -60.1320 297° West 473 544 36,000  Level FlightAware ADS-B
Wed 12:56:43 AM 9.4750 -60.2050 296° West 473 544 36,000  Level FlightAware ADS-B
Wed 12:57:19 AM 9.5080 -60.2770 295° West 473 544 36,000  Level FlightAware ADS-B
Wed 12:57:55 AM 9.5520 -60.3430 304° West 474 545 36,000  Level FlightAware ADS-B
Wed 12:58:29 AM 9.6010 -60.4010 311° West 475 547 36,000  Level FlightAware ADS-B
Wed 12:59:01 AM 9.6480 -60.4550 311° West 474 545 36,000  Level FlightAware ADS-B
Wed 12:59:39 AM 9.7020 -60.5170 311° West 473 544 36,000  Level FlightAware ADS-B
Wed 01:00:12 AM 9.7430 -60.5640 312° West 475 547 36,000  Level FlightAware ADS-B
Wed 01:00:47 AM 9.8010 -60.6300 312° West 474 545 36,000  Level FlightAware ADS-B
Wed 01:01:23 AM 9.8550 -60.6910 312° West 474 545 36,000  Level FlightAware ADS-B
Wed 01:01:59 AM 9.9070 -60.7510 311° West 476 548 36,000  Level FlightAware ADS-B
Wed 01:02:15 AM 9.9310 -60.7780 312° West 476 548 36,000  Level FlightAware ADS-B
Wed 01:03:05 AM 10.0030 -60.8610 311° West 477 549 36,000  Level FlightAware ADS-B
Wed 01:03:37 AM 10.0510 -60.9150 312° West 478 550 36,000  Level FlightAware ADS-B
Wed 01:04:15 AM 10.1060 -60.9780 312° West 478 550 36,000  Level FlightAware ADS-B
Wed 01:04:51 AM 10.1590 -61.0390 311° West 479 551 36,000  Level FlightAware ADS-B
Wed 01:05:27 AM 10.2120 -61.0990 312° West 481 554 36,000  Level FlightAware ADS-B
Wed 01:05:59 AM 10.2600 -61.1550 311° West 482 555 36,000  Level FlightAware ADS-B
Wed 01:06:35 AM 10.3120 -61.2150 311° West 482 555 36,000  Level FlightAware ADS-B
Wed 01:07:07 AM 10.3610 -61.2710 312° West 483 556 36,000  Level FlightAware ADS-B
Wed 01:07:43 AM 10.4130 -61.3300 312° West 483 556 36,000  Level FlightAware ADS-B
Wed 01:08:19 AM 10.4700 -61.3890 314° West 485 558 36,000  Level FlightAware ADS-B
Wed 01:08:55 AM 10.5360 -61.4340 326° Northwest 486 559 36,000  Level FlightAware ADS-B
Wed 01:09:31 AM 10.6060 -61.4760 329° Northwest 484 557 36,000  Level FlightAware ADS-B
Wed 01:10:03 AM 10.6690 -61.5130 330° Northwest 484 557 36,000  Level FlightAware ADS-B
Wed 01:10:39 AM 10.7390 -61.5540 330° Northwest 486 559 36,000  Level FlightAware ADS-B
Wed 01:11:13 AM 10.8000 -61.5910 329° Northwest 486 559 36,000  Level FlightAware ADS-B
Wed 01:11:49 AM 10.8740 -61.6350 330° Northwest 486 559 36,000  Level FlightAware ADS-B
Wed 01:12:25 AM 10.9440 -61.6770 329° Northwest 483 556 36,000  Level FlightAware ADS-B
Wed 01:13:01 AM 11.0140 -61.7190 330° Northwest 483 556 36,000  Level FlightAware ADS-B
Wed 01:13:33 AM 11.0760 -61.7560 330° Northwest 485 558 36,000  Level FlightAware ADS-B
Wed 01:14:09 AM 11.1470 -61.7990 329° Northwest 487 560 36,000  Level FlightAware ADS-B
Wed 01:14:47 AM 11.2210 -61.8430 330° Northwest 489 563 36,000  Level FlightAware ADS-B
Wed 01:15:19 AM 11.2840 -61.8800 330° Northwest 489 563 36,000  Level FlightAware ADS-B
Wed 01:15:55 AM 11.3540 -61.9230 329° Northwest 489 563 36,000  Level FlightAware ADS-B
Wed 01:16:31 AM 11.4240 -61.9650 330° Northwest 490 564 36,000  Level FlightAware ADS-B
Wed 01:17:03 AM 11.4860 -62.0020 330° Northwest 490 564 36,000  Level FlightAware ADS-B
Wed 01:17:35 AM 11.5500 -62.0410 329° Northwest 491 565 36,000  Level FlightAware ADS-B
Wed 01:18:15 AM 11.6280 -62.0890 329° Northwest 489 563 36,000  Level FlightAware ADS-B
Wed 01:18:52 AM 11.6910 -62.1430 320° Northwest 487 560 36,000  Level FlightAware ADS-B
Wed 01:19:23 AM 11.7450 -62.1900 320° Northwest 486 559 36,000  Level FlightAware ADS-B
Wed 01:19:55 AM 11.7990 -62.2390 318° Northwest 481 554 36,000  Level FlightAware ADS-B
Wed 01:20:37 AM 11.8630 -62.3080 313° West 479 551 36,000  Level FlightAware ADS-B
Wed 01:21:09 AM 11.9100 -62.3600 313° West 476 548 36,000  Level FlightAware ADS-B
Wed 01:21:45 AM 11.9600 -62.4240 309° West 474 545 36,000  Level FlightAware ADS-B
Wed 01:22:09 AM 11.9910 -62.4660 307° West 474 545 36,000  Level FlightAware ADS-B
Wed 01:22:56 AM 12.0540 -62.5500 307° West 475 547 36,000  Level FlightAware ADS-B
Wed 01:23:31 AM 12.1010 -62.6120 308° West 476 548 36,000  Level FlightAware ADS-B
Wed 01:24:03 AM 12.1440 -62.6690 308° West 476 548 36,000  Level FlightAware ADS-B
Wed 01:24:39 AM 12.1940 -62.7340 308° West 475 547 36,000  Level FlightAware ADS-B
Wed 01:25:15 AM 12.2440 -62.7970 309° West 476 548 36,000  Level FlightAware ADS-B
Wed 01:25:49 AM 12.2910 -62.8550 310° West 474 545 36,000  Level FlightAware ADS-B
Wed 01:26:25 AM 12.3420 -62.9160 311° West 474 545 36,000  Level FlightAware ADS-B
Wed 01:26:59 AM 12.3930 -62.9730 312° West 478 550 36,000  Level FlightAware ADS-B
Wed 01:27:33 AM 12.4490 -63.0220 319° Northwest 478 550 36,000  Level FlightAware ADS-B
Wed 01:28:14 AM 12.5150 -63.0720 324° Northwest 478 550 36,000  Level FlightAware ADS-B
Wed 01:28:55 AM 12.6040 -63.1240 330° Northwest 481 554 36,000  Level FlightAware ADS-B
Wed 01:29:36 AM 12.6730 -63.1650 330° Northwest 481 554 36,000  Level FlightAware ADS-B
Wed 01:30:12 AM 12.7320 -63.1990 331° Northwest 481 554 36,000  Level FlightAware ADS-B
Wed 01:30:48 AM 12.7910 -63.2340 330° Northwest 481 554 36,000  Level FlightAware ADS-B
Wed 01:31:24 AM 12.8500 -63.2690 330° Northwest 481 554 36,000  Level FlightAware ADS-B
Wed 01:32:10 AM 12.9250 -63.3140 330° Northwest 481 554 36,000  Level FlightAware ADS-B
Wed 01:33:58 AM 13.1020 -63.4190 339° North 481 554 36,000  Level FlightAware ADS-B
Wed 01:34:00 AM 13.1516 -63.4027 339° North  Level FlightAware Approximate
Wed 01:34:34 AM 13.1610 -63.4540 330° Northwest 481 554 36,000  Level FlightAware ADS-B
Wed 01:35:10 AM 13.2200 -63.4890 330° Northwest 481 554 36,000  Level FlightAware ADS-B
Wed 01:35:46 AM 13.2790 -63.5240 330° Northwest 481 554 36,000  Level FlightAware ADS-B
Wed 01:36:22 AM 13.3380 -63.5590 330° Northwest 481 554 36,000  Level FlightAware ADS-B
Wed 01:36:58 AM 13.3970 -63.5940 330° Northwest 481 554 36,000  Level FlightAware ADS-B
Wed 01:37:34 AM 13.4560 -63.6290 330° Northwest 481 554 36,000  Level FlightAware ADS-B
Wed 01:38:10 AM 13.5150 -63.6640 330° Northwest 481 554 36,000  Level FlightAware ADS-B
Wed 01:38:46 AM 13.5740 -63.6990 330° Northwest 481 554 36,000  Level FlightAware ADS-B
Wed 01:41:00 AM 13.8577 -63.7838 344° North  Level Estimated
Wed 01:42:00 AM 13.9847 -63.8218 344° North  Level Estimated
Wed 01:43:00 AM 14.1118 -63.8599 344° North  Level Estimated
Wed 01:44:00 AM 14.2388 -63.8980 344° North  Level Estimated
Wed 01:45:00 AM 14.3658 -63.9361 344° North  Level Estimated
Wed 01:46:00 AM 14.4928 -63.9743 344° North  Level Estimated
Wed 01:47:00 AM 14.6198 -64.0126 344° North  Level Estimated
Wed 01:48:00 AM 14.7468 -64.0509 344° North  Level Estimated
Wed 01:49:00 AM 14.8702 -64.0882 344° North  Level Estimated
Wed 01:50:00 AM 14.9937 -64.1255 344° North  Level Estimated
Wed 01:51:00 AM 15.1171 -64.1628 344° North  Level Estimated
Wed 01:52:00 AM 15.2406 -64.2002 344° North  Level Estimated
Wed 01:52:10 AM 15.4500 -64.4333 344° North 470 541 36,000  Level San Juan Center
Wed 01:53:00 AM 15.3640 -64.2377 344° North  Level Estimated
Wed 01:53:10 AM 15.5667 -64.5000 331° Northwest 480 552 36,000  Level San Juan Center
Wed 01:54:00 AM 15.4874 -64.2751 344° North  Level Estimated
Wed 01:54:10 AM 15.6667 -64.5833 321° Northwest 480 552 36,000  Level San Juan Center
Wed 01:55:00 AM 15.6109 -64.3127 344° North  Level Estimated
Wed 01:56:00 AM 15.7343 -64.3503 344° North  Level Estimated
Wed 01:57:00 AM 15.8577 -64.3879 344° North  Level Estimated
Wed 01:59:28 AM 16.2840 -64.9870 321° Northwest 481 554 36,000  Level FlightAware ADS-B
Wed 01:59:59 AM 16.3400 -65.0240 328° Northwest 482 555 36,000  Level FlightAware ADS-B
Wed 02:00:38 AM 16.4140 -65.0740 327° Northwest 484 557 36,000  Level FlightAware ADS-B
Wed 02:01:15 AM 16.4810 -65.1190 327° Northwest 483 556 36,000  Level FlightAware ADS-B
Wed 02:01:53 AM 16.5560 -65.1680 328° Northwest 482 555 36,000  Level FlightAware ADS-B
Wed 02:02:33 AM 16.6290 -65.2180 327° Northwest 481 554 36,000  Level FlightAware ADS-B
Wed 02:03:04 AM 16.6870 -65.2560 328° Northwest 482 555 36,000  Level FlightAware ADS-B
Wed 02:03:38 AM 16.7510 -65.2990 327° Northwest 482 555 36,000  Level FlightAware ADS-B
Wed 02:04:20 AM 16.8220 -65.3470 327° Northwest 482 555 36,000  Level FlightAware ADS-B
Wed 02:04:56 AM 16.8790 -65.3860 327° Northwest 482 555 36,000  Level FlightAware ADS-B
Wed 02:05:32 AM 16.9360 -65.4250 327° Northwest 482 555 36,000  Level FlightAware ADS-B
Wed 02:06:24 AM 17.0510 -65.5020 327° Northwest 469 540 36,000  Level FlightAware ADS-B
Wed 02:06:58 AM 17.1220 -65.5490 328° Northwest 469 540 36,000  Level FlightAware ADS-B
Wed 02:07:32 AM 17.1840 -65.5910 327° Northwest 470 541 36,000  Level FlightAware ADS-B
Wed 02:08:06 AM 17.2460 -65.6330 327° Northwest 468 539 36,000  Level FlightAware ADS-B
Wed 02:08:42 AM 17.3130 -65.6780 327° Northwest 468 539 36,000  Level FlightAware ADS-B
Wed 02:09:14 AM 17.3690 -65.7160 327° Northwest 467 537 36,000  Level FlightAware ADS-B
Wed 02:09:52 AM 17.4390 -65.7630 327° Northwest 467 537 36,000  Level FlightAware ADS-B
Wed 02:10:28 AM 17.5040 -65.8070 327° Northwest 466 536 36,000  Level FlightAware ADS-B
Wed 02:11:00 AM 17.5640 -65.8480 327° Northwest 466 536 36,000  Level FlightAware ADS-B
Wed 02:11:38 AM 17.6320 -65.8940 327° Northwest 466 536 36,000  Level FlightAware ADS-B
Wed 02:12:12 AM 17.6930 -65.9350 327° Northwest 466 536 36,000  Level FlightAware ADS-B
Wed 02:12:48 AM 17.7590 -65.9800 327° Northwest 465 535 36,000  Level FlightAware ADS-B
Wed 02:13:24 AM 17.8250 -66.0250 327° Northwest 465 535 36,000  Level FlightAware ADS-B
Wed 02:13:56 AM 17.8810 -66.0630 327° Northwest 465 535 36,000  Level FlightAware ADS-B
Wed 02:14:32 AM 17.9480 -66.1090 327° Northwest 465 535 36,000  Level FlightAware ADS-B
Wed 02:15:09 AM 18.0130 -66.1530 327° Northwest 467 537 36,000  Level FlightAware ADS-B
Wed 02:15:44 AM 18.0780 -66.1970 327° Northwest 468 539 36,000  Level FlightAware ADS-B
Wed 02:16:16 AM 18.1360 -66.2380 326° Northwest 469 540 36,000  Level FlightAware ADS-B
Wed 02:16:54 AM 18.2050 -66.2850 327° Northwest 469 540 36,000  Level FlightAware ADS-B
Wed 02:17:30 AM 18.2700 -66.3290 327° Northwest 470 541 36,000  Level FlightAware ADS-B
Wed 02:18:02 AM 18.3290 -66.3690 327° Northwest 470 541 36,000  Level FlightAware ADS-B
Wed 02:18:38 AM 18.3950 -66.4140 327° Northwest 470 541 36,000  Level FlightAware ADS-B
Wed 02:19:14 AM 18.4600 -66.4600 326° Northwest 471 542 36,000  Level FlightAware ADS-B
Wed 02:19:49 AM 18.5230 -66.5030 327° Northwest 470 541 36,000  Level FlightAware ADS-B
Wed 02:20:25 AM 18.5890 -66.5480 327° Northwest 470 541 36,000  Level FlightAware ADS-B
Wed 02:20:56 AM 18.6460 -66.5880 326° Northwest 470 541 36,000  Level FlightAware ADS-B
Wed 02:21:32 AM 18.7110 -66.6320 327° Northwest 469 540 36,000  Level FlightAware ADS-B
Wed 02:22:09 AM 18.7750 -66.6760 327° Northwest 468 539 36,000  Level FlightAware ADS-B
Wed 02:22:38 AM 18.8310 -66.7150 327° Northwest 468 539 36,000  Level FlightAware ADS-B
Wed 02:23:14 AM 18.8960 -66.7600 327° Northwest 467 537 36,000  Level FlightAware ADS-B
Wed 02:23:42 AM 18.9470 -66.7950 327° Northwest 469 540 36,000  Level FlightAware ADS-B
Wed 02:24:22 AM 19.0200 -66.8460 327° Northwest 469 540 36,000  Level FlightAware ADS-B
Wed 02:24:58 AM 19.0850 -66.8900 327° Northwest 469 540 36,000  Level FlightAware ADS-B
Wed 02:25:34 AM 19.1500 -66.9360 326° Northwest 468 539 36,000  Level FlightAware ADS-B
Wed 02:26:10 AM 19.2160 -66.9810 327° Northwest 469 540 36,000  Level FlightAware ADS-B
Wed 02:26:38 AM 19.2680 -67.0170 327° Northwest 469 540 36,000  Level FlightAware ADS-B
Wed 02:27:10 AM 19.3250 -67.0570 326° Northwest 469 540 36,000  Level FlightAware ADS-B
Wed 02:27:44 AM 19.3880 -67.1010 327° Northwest 471 542 36,000  Level FlightAware ADS-B
Wed 02:28:22 AM 19.4550 -67.1470 327° Northwest 471 542 36,000  Level FlightAware ADS-B
Wed 02:28:57 AM 19.5170 -67.1910 326° Northwest 472 543 36,000  Level FlightAware ADS-B
Wed 02:29:30 AM 19.5790 -67.2340 327° Northwest 471 542 36,000  Level FlightAware ADS-B
Wed 02:30:06 AM 19.6470 -67.2820 326° Northwest 471 542 36,000  Level FlightAware ADS-B
Wed 02:30:42 AM 19.7090 -67.3250 327° Northwest 472 543 36,000  Level FlightAware ADS-B
Wed 02:31:14 AM 19.7680 -67.3660 327° Northwest 472 543 36,000  Level FlightAware ADS-B
Wed 02:31:51 AM 19.8380 -67.4150 327° Northwest 473 544 36,000  Level FlightAware ADS-B
Wed 02:32:26 AM 19.9000 -67.4590 326° Northwest 473 544 36,000  Level FlightAware ADS-B
Wed 02:33:03 AM 19.9700 -67.5080 327° Northwest 472 543 36,000  Level FlightAware ADS-B
Wed 02:33:34 AM 20.0270 -67.5480 327° Northwest 473 544 36,000  Level FlightAware ADS-B
Wed 02:34:10 AM 20.0950 -67.5960 326° Northwest 473 544 36,000  Level FlightAware ADS-B
Wed 02:34:47 AM 20.1600 -67.6420 326° Northwest 473 544 36,000  Level FlightAware ADS-B
Wed 02:35:23 AM 20.2240 -67.6870 327° Northwest 474 545 36,000  Level FlightAware ADS-B
Wed 02:35:54 AM 20.2840 -67.7290 327° Northwest 473 544 36,000  Level FlightAware ADS-B
Wed 02:36:30 AM 20.3500 -67.7750 327° Northwest 472 543 36,000  Level FlightAware ADS-B
Wed 02:37:08 AM 20.4190 -67.8240 326° Northwest 471 542 36,000  Level FlightAware ADS-B
Wed 02:37:39 AM 20.4740 -67.8630 326° Northwest 472 543 36,000  Level FlightAware ADS-B
Wed 02:38:16 AM 20.5480 -67.9040 333° Northwest 475 547 36,000  Level FlightAware ADS-B
Wed 02:38:51 AM 20.6160 -67.9350 337° Northwest 476 548 36,000  Level FlightAware ADS-B
Wed 02:39:27 AM 20.6900 -67.9710 336° Northwest 475 547 36,000  Level FlightAware ADS-B
Wed 02:39:58 AM 20.7520 -68.0020 335° Northwest 475 547 36,000  Level FlightAware ADS-B
Wed 02:40:47 AM 20.8260 -68.0410 334° Northwest 474 545 36,000  Level FlightAware ADS-B
Wed 02:41:27 AM 20.9290 -68.0890 336° Northwest 477 549 36,000  Level FlightAware ADS-B
Wed 02:42:04 AM 20.9960 -68.1200 337° Northwest 477 549 36,000  Level FlightAware ADS-B
Wed 02:42:45 AM 21.0770 -68.1580 336° Northwest 478 550 36,000  Level FlightAware ADS-B
Wed 02:43:21 AM 21.1390 -68.1880 336° Northwest 478 550 36,000  Level FlightAware ADS-B
Wed 02:43:55 AM 21.1970 -68.2150 337° Northwest 478 550 36,000  Level FlightAware ADS-B
Wed 02:44:31 AM 21.2590 -68.2450 336° Northwest 478 550 36,000  Level FlightAware ADS-B
Wed 02:45:08 AM 21.3230 -68.2750 336° Northwest 478 550 36,000  Level FlightAware ADS-B
Wed 02:45:45 AM 21.3860 -68.3060 335° Northwest 478 550 36,000  Level FlightAware ADS-B
Wed 02:46:21 AM 21.4480 -68.3350 336° Northwest 478 550 36,000  Level FlightAware ADS-B
Wed 02:46:55 AM 21.5060 -68.3630 336° Northwest 478 550 36,000  Level FlightAware ADS-B
Wed 02:47:31 AM 21.5680 -68.3930 336° Northwest 478 550 36,000  Level FlightAware ADS-B
Wed 02:48:07 AM 21.6300 -68.4220 337° Northwest 478 550 36,000  Level FlightAware ADS-B
Wed 02:48:43 AM 21.6920 -68.4520 336° Northwest 478 550 36,000  Level FlightAware ADS-B
Wed 02:49:19 AM 21.7540 -68.4820 336° Northwest 478 550 36,000  Level FlightAware ADS-B
Wed 02:49:55 AM 21.8150 -68.5110 336° Northwest 478 550 36,000  Level FlightAware ADS-B
Wed 02:50:32 AM 21.8790 -68.5420 336° Northwest 478 550 36,000  Level FlightAware ADS-B
Wed 02:51:08 AM 21.9410 -68.5710 337° Northwest 478 550 36,000  Level FlightAware ADS-B
Wed 02:51:44 AM 22.0030 -68.6010 336° Northwest 478 550 36,000  Level FlightAware ADS-B
Wed 02:52:17 AM 22.2564 -68.7153 336° Northwest 477 549 36,000  Level Miami Center
Wed 02:53:18 AM 22.3764 -68.7750 335° Northwest 477 549 36,000  Level Miami Center
Wed 02:54:17 AM 22.5025 -68.8344 336° Northwest 467 537 36,000  Level Miami Center
Wed 02:55:19 AM 22.6244 -68.8922 336° Northwest 478 550 36,000  Level Miami Center
Wed 02:56:17 AM 22.7464 -68.9519 336° Northwest 484 557 36,000  Level Miami Center
Wed 02:57:18 AM 22.8767 -69.0139 336° Northwest 491 565 36,000  Level Miami Center
Wed 02:58:17 AM 23.0006 -69.0739 336° Northwest 496 571 36,000  Level Miami Center
Wed 02:59:19 AM 23.1269 -69.1361 336° Northwest 496 571 36,000  Level Miami Center
Wed 03:00:18 AM 23.2531 -69.1961 336° Northwest 487 560 36,000  Level Miami Center
Wed 03:01:18 AM 23.3772 -69.2586 335° Northwest 493 567 36,000  Level Miami Center
Wed 03:02:18 AM 23.5011 -69.3169 337° Northwest 494 568 36,000  Level Miami Center
Wed 03:03:19 AM 23.6314 -69.3817 336° Northwest 494 568 36,000  Level Miami Center
Wed 03:04:20 AM 23.7553 -69.4400 337° Northwest 494 568 36,000  Level Miami Center
Wed 03:05:20 AM 23.8861 -69.5117 333° Northwest 502 578 36,000  Level Miami Center
Wed 03:06:17 AM 24.0097 -69.5658 338° Northwest 496 571 36,000  Level Miami Center
Wed 03:07:17 AM 24.1358 -69.6289 335° Northwest 496 571 36,000  Level Miami Center
Wed 03:08:17 AM 24.2642 -69.6919 336° Northwest 496 571 36,000  Level Miami Center
Wed 03:09:20 AM 24.3944 -69.7550 336° Northwest 496 571 36,000  Level Miami Center
Wed 03:10:19 AM 24.5228 -69.8206 335° Northwest 501 577 36,000  Level Miami Center
Wed 03:11:19 AM 24.6508 -69.8817 337° Northwest 501 577 36,000  Level Miami Center
Wed 03:12:17 AM 24.7792 -69.9500 334° Northwest 501 577 36,000  Level Miami Center
Wed 03:13:18 AM 24.8817 -69.9967 338° Northwest 501 577 36,000  Level Miami Center
Wed 03:14:14 AM 25.0000 -70.0500 348° North 491 565 36,000  Level New York Oceanic (ODAPS)
Wed 03:22:00 AM 26.0765 -70.3011 348° North 491 565 36,000  Level FlightAware Transoceanic
Wed 03:22:11 AM 26.0833 -70.3000 348° North 486 559 36,000  Level New York Oceanic (ODAPS)
Wed 03:23:00 AM 26.2110 -70.3328 348° North 491 565 36,000  Level FlightAware Transoceanic
Wed 03:24:00 AM 26.3455 -70.3646 348° North 491 565 36,000  Level FlightAware Transoceanic
Wed 03:25:00 AM 26.4800 -70.3965 348° North 491 565 36,000  Level FlightAware Transoceanic
Wed 03:26:00 AM 26.6145 -70.4284 348° North 491 565 36,000  Level FlightAware Transoceanic
Wed 03:27:00 AM 26.7490 -70.4604 348° North 491 565 36,000  Level FlightAware Transoceanic
Wed 03:28:00 AM 26.8884 -70.4917 348° North 486 559 36,000  Level FlightAware Transoceanic
Wed 03:29:00 AM 27.0226 -70.5239 348° North 486 559 36,000  Level FlightAware Transoceanic
Wed 03:30:00 AM 27.1567 -70.5562 348° North 486 559 36,000  Level FlightAware Transoceanic
Wed 03:31:00 AM 27.2909 -70.5886 348° North 486 559 36,000  Level FlightAware Transoceanic
Wed 03:32:00 AM 27.4250 -70.6210 348° North 486 559 36,000  Level FlightAware Transoceanic
Wed 03:33:00 AM 27.5592 -70.6536 348° North 486 559 36,000  Level FlightAware Transoceanic
Wed 03:34:00 AM 27.6933 -70.6862 348° North 486 559 36,000  Level FlightAware Transoceanic
Wed 03:35:00 AM 27.8274 -70.7189 348° North 486 559 36,000  Level FlightAware Transoceanic
Wed 03:36:00 AM 27.9615 -70.7516 348° North 486 559 36,000  Level FlightAware Transoceanic
Wed 03:36:00 AM 27.9167 -70.7333 347° North 482 555 36,000  Level New York Oceanic (ODAPS)
Wed 03:37:00 AM 28.0956 -70.7845 348° North 486 559 36,000  Level FlightAware Transoceanic
Wed 03:38:00 AM 28.2297 -70.8174 348° North 486 559 36,000  Level FlightAware Transoceanic
Wed 03:39:00 AM 28.3638 -70.8504 348° North 486 559 36,000  Level FlightAware Transoceanic
Wed 03:40:00 AM 28.4978 -70.8835 348° North 486 559 36,000  Level FlightAware Transoceanic
Wed 03:41:00 AM 28.6319 -70.9167 348° North 486 559 36,000  Level FlightAware Transoceanic
Wed 03:42:00 AM 28.7596 -70.9473 347° North 482 555 36,000  Level FlightAware Transoceanic
Wed 03:43:00 AM 28.9000 -70.9833 348° North 482 555 36,000  Level FlightAware Transoceanic
Wed 03:43:11 AM 28.8500 -70.9667 344° North 475 547 36,000  Level New York Oceanic (ODAPS)
Wed 03:44:00 AM 29.0241 -71.0138 348° North 482 555 36,000  Level FlightAware Transoceanic
Wed 03:45:00 AM 29.1483 -71.0444 348° North 482 555 36,000  Level FlightAware Transoceanic
Wed 03:46:00 AM 29.2724 -71.0750 348° North 482 555 36,000  Level FlightAware Transoceanic
Wed 03:47:00 AM 29.3965 -71.1058 348° North 482 555 36,000  Level FlightAware Transoceanic
Wed 03:48:00 AM 29.5206 -71.1365 348° North 482 555 36,000  Level FlightAware Transoceanic
Wed 03:49:00 AM 29.6447 -71.1674 348° North 475 547 36,000  Level FlightAware Transoceanic
Wed 03:49:54 AM 29.7167 -71.1833 348° North 471 542 36,000  Level New York Oceanic (ODAPS)
Wed 03:50:00 AM 29.7688 -71.1983 348° North 475 547 36,000  Level FlightAware Transoceanic
Wed 03:51:00 AM 29.8929 -71.2294 348° North 475 547 36,000  Level FlightAware Transoceanic
Wed 03:52:00 AM 30.0170 -71.2605 348° North 475 547 36,000  Level FlightAware Transoceanic
Wed 03:53:00 AM 30.1411 -71.2916 348° North 475 547 36,000  Level FlightAware Transoceanic
Wed 03:54:00 AM 30.2651 -71.3229 348° North 475 547 36,000  Level FlightAware Transoceanic
Wed 03:55:00 AM 30.3892 -71.3542 348° North 475 547 36,000  Level FlightAware Transoceanic
Wed 03:56:00 AM 30.4703 -71.3731 348° North 471 542 36,000  Level FlightAware Transoceanic
Wed 03:57:00 AM 30.5959 -71.4050 348° North 471 542 36,000  Level FlightAware Transoceanic
Wed 03:58:00 AM 30.7215 -71.4370 348° North 471 542 36,000  Level FlightAware Transoceanic
Wed 03:59:00 AM 30.8470 -71.4691 348° North 471 542 36,000  Level FlightAware Transoceanic
Wed 04:00:00 AM 30.9726 -71.5012 348° North 471 542 36,000  Level FlightAware Transoceanic
Wed 04:01:00 AM 31.0981 -71.5335 348° North 471 542 36,000  Level FlightAware Transoceanic
Wed 04:02:00 AM 31.2236 -71.5658 348° North 471 542 36,000  Level FlightAware Transoceanic
Wed 04:03:00 AM 31.3492 -71.5982 348° North 471 542 36,000  Level FlightAware Transoceanic
Wed 04:03:48 AM 31.4500 -71.6167 347° North 451 519 36,000  Level New York Oceanic (ODAPS)
Wed 04:04:00 AM 31.4747 -71.6307 348° North 471 542 36,000  Level FlightAware Transoceanic
Wed 04:05:00 AM 31.6002 -71.6633 348° North 471 542 36,000  Level FlightAware Transoceanic
Wed 04:06:00 AM 31.7257 -71.6960 347° North 471 542 36,000  Level FlightAware Transoceanic
Wed 04:07:00 AM 31.8512 -71.7288 347° North 471 542 36,000  Level FlightAware Transoceanic
Wed 04:08:00 AM 31.9767 -71.7616 347° North 471 542 36,000  Level FlightAware Transoceanic
Wed 04:08:43 AM 32.0500 -71.7833 348° North 432 497 36,000  Level New York Oceanic (ODAPS)
Wed 04:09:00 AM 32.1022 -71.7945 347° North 471 542 36,000  Level FlightAware Transoceanic
Wed 04:10:00 AM 32.2104 -71.8176 347° North 451 519 36,000  Level FlightAware Transoceanic
Wed 04:11:00 AM 32.3371 -71.8514 347° North 451 519 36,000  Level FlightAware Transoceanic
Wed 04:12:00 AM 32.4638 -71.8854 347° North 451 519 36,000  Level FlightAware Transoceanic
Wed 04:13:00 AM 32.5905 -71.9194 347° North 451 519 36,000  Level FlightAware Transoceanic
Wed 04:14:00 AM 32.6544 -71.9424 347° North 432 497 36,000  Level FlightAware Transoceanic
Wed 04:15:00 AM 32.7752 -71.9744 347° North 432 497 36,000  Level FlightAware Transoceanic
Wed 04:15:51 AM 32.8667 -72.0000 347° North 505 581 36,000  Level New York Oceanic (ODAPS)
Wed 04:16:00 AM 32.8961 -72.0066 347° North 432 497 36,000  Level FlightAware Transoceanic
Wed 04:16:12 AM 32.8833 -72.0000 347° North 531 611 36,000  Level New York Oceanic (ODAPS)
Wed 04:17:00 AM 33.0169 -72.0388 347° North 432 497 36,000  Level FlightAware Transoceanic
Wed 04:17:33 AM 33.0333 -72.0500 348° North 447 514 36,000  Level New York Oceanic (ODAPS)
Wed 04:17:56 AM 33.0333 -72.0500 348° North 447 514 36,000  Level New York Oceanic (ODAPS)
Wed 04:18:00 AM 33.1378 -72.0712 347° North 432 497 36,000  Level FlightAware Transoceanic
Wed 04:19:00 AM 33.2586 -72.1036 347° North 432 497 36,000  Level FlightAware Transoceanic
Wed 04:20:00 AM 33.3794 -72.1361 347° North 432 497 36,000  Level FlightAware Transoceanic
Wed 04:21:00 AM 33.5002 -72.1687 347° North 432 497 36,000  Level FlightAware Transoceanic
Wed 04:22:00 AM 33.6167 -72.1992 347° North 531 611 36,000  Level FlightAware Transoceanic
Wed 04:23:00 AM 33.7459 -72.2370 348° North 447 514 36,000  Level FlightAware Transoceanic
Wed 04:24:00 AM 33.8646 -72.2684 348° North 447 514 36,000 -53 Level FlightAware Transoceanic
Wed 04:24:54 AM 33.6564 -72.9961 355° North 458 527 35,900  Descending New York Center
Wed 04:25:00 AM 33.9833 -72.3000 355° North 447 514 36,000  Climbing FlightAware Transoceanic
Wed 04:25:54 AM 33.7525 -73.0861 322° Northwest 443 510 35,900  Descending New York Center
Wed 04:26:00 AM 34.1019 -72.3128 355° North 447 514 36,000 118 Climbing FlightAware Transoceanic
Wed 04:26:45 AM 33.9833 -72.3000 355° North 558 642 36,000  Level New York Oceanic (ODAPS)
Wed 04:27:00 AM 34.2204 -72.3257 355° North 447 514 36,000  Level FlightAware Transoceanic
Wed 04:27:17 AM 33.9833 -72.3000 355° North 449 517 36,000 -111 Level New York Oceanic (ODAPS)
Wed 04:27:54 AM 33.9800 -73.1778 355° North 434 499 35,900  Descending New York Center
Wed 04:28:00 AM 34.3389 -72.3386 355° North 447 514 36,000 750 Climbing FlightAware Transoceanic
Wed 04:28:02 AM 34.0500 -72.3000 355° North 453 521 36,000 -109 Level New York Oceanic (ODAPS)
Wed 04:28:55 AM 34.1056 -73.1614 355° North 427 491 35,900  Descending New York Center
Wed 04:29:54 AM 34.2253 -73.1272 13° North 435 501 36,000  Climbing New York Center
Wed 04:30:54 AM 34.3489 -73.0908 14° North 435 501 35,900  Descending New York Center
Wed 04:31:29 AM 34.4667 -72.3500 355° North 456 525 36,000 49 Climbing New York Oceanic (ODAPS)
Wed 04:32:56 AM 34.5692 -73.0267 355° North 445 512 36,000 -41 Level New York Center
Wed 04:33:56 AM 34.7139 -72.9903 12° North 445 512 35,900 -50 Descending New York Center
Wed 04:34:56 AM 34.8419 -72.9508 14° North 451 519 35,900 51 Level New York Center
Wed 04:35:54 AM 34.9614 -72.9214 11° North 451 519 36,000  Climbing New York Center
Wed 04:36:54 AM 35.0850 -72.8842 14° North 451 519 35,900 -49 Descending New York Center
Wed 04:37:56 AM 35.2089 -72.8494 13° North 451 519 35,900 50 Level New York Center
Wed 04:38:54 AM 35.3367 -72.8097 14° North 451 519 36,000  Climbing New York Center
Wed 04:39:54 AM 35.4583 -72.7772 12° North 455 524 35,900 -49 Descending New York Center
Wed 04:40:56 AM 35.5758 -72.7444 13° North 452 520 35,900 50 Level New York Center
Wed 04:41:54 AM 35.7100 -72.7044 14° North 447 514 36,000  Climbing New York Center
Wed 04:42:54 AM 35.8272 -72.6714 13° North 453 521 35,900  Descending New York Center
Wed 04:43:54 AM 35.9489 -72.6361 13° North 448 516 36,000 50 Climbing New York Center
Wed 04:44:55 AM 36.0747 -72.6006 13° North 448 516 36,000  Level New York Center
Wed 04:45:54 AM 36.1919 -72.5647 14° North 453 521 36,000 -50 Level New York Center
Wed 04:46:54 AM 36.3178 -72.5292 13° North 453 521 35,900 -50 Descending New York Center
Wed 04:47:54 AM 36.4456 -72.4908 14° North 448 516 35,900 50 Level New York Center
Wed 04:48:54 AM 36.5714 -72.4550 13° North 456 525 36,000 50 Climbing New York Center
Wed 04:49:55 AM 36.6950 -72.4189 13° North 456 525 36,000 -50 Level New York Center
Wed 04:50:54 AM 36.8122 -72.3931 10° North 444 511 35,900  Descending New York Center
Wed 04:51:54 AM 36.9375 -72.3750 North 449 517 36,000 -472 Climbing New York Center
Wed 04:58:06 AM 37.6961 -72.3183 North 446 513 32,500 -612 Descending FlightAware ADS-B
Wed 04:58:36 AM 37.7557 -72.3463 340° North 460 529 31,900 -1,238 Descending FlightAware ADS-B
Wed 04:59:09 AM 37.8232 -72.3785 339° North 470 541 31,200 -1,250 Descending FlightAware ADS-B
Wed 04:59:48 AM 37.9019 -72.4162 339° North 476 548 30,400 -1,304 Descending FlightAware ADS-B
Wed 05:00:18 AM 37.9649 -72.4462 339° North 472 543 29,700 -1,279 Descending FlightAware ADS-B
Wed 05:00:49 AM 38.0261 -72.4754 339° North 469 540 29,100 -1,258 Descending FlightAware ADS-B
Wed 05:01:20 AM 38.0908 -72.5063 339° North 468 539 28,400 -1,333 Descending FlightAware ADS-B
Wed 05:01:52 AM 38.1546 -72.5369 339° North 462 532 27,700 -1,343 Descending FlightAware ADS-B
Wed 05:02:27 AM 38.2224 -72.5695 339° North 454 522 26,900 -1,247 Descending FlightAware ADS-B
Wed 05:03:09 AM 38.2990 -72.6060 339° North 443 510 26,100 -1,220 Descending FlightAware ADS-B
Wed 05:03:26 AM 38.3380 -72.6250 339° North 443 510 25,700 -1,375 Descending FlightAware ADS-B
Wed 05:03:57 AM 38.3976 -72.6537 339° North 449 517 25,000 -1,313 Descending FlightAware ADS-B
Wed 05:04:30 AM 38.4610 -72.6845 339° North 443 510 24,300 -1,219 Descending FlightAware ADS-B
Wed 05:05:01 AM 38.5196 -72.7129 339° North 436 502 23,700 -1,161 Descending FlightAware ADS-B
Wed 05:05:32 AM 38.5775 -72.7410 339° North 432 497 23,100 -1,180 Descending FlightAware ADS-B
Wed 05:06:02 AM 38.6338 -72.7684 339° North 430 495 22,500 -1,300 Descending FlightAware ADS-B
Wed 05:06:32 AM 38.6894 -72.7955 339° North 427 491 21,800 -1,279 Descending FlightAware ADS-B
Wed 05:07:03 AM 38.7468 -72.8235 339° North 423 487 21,200 -1,161 Descending FlightAware ADS-B
Wed 05:07:34 AM 38.8014 -72.8501 339° North 417 480 20,600 -1,082 Descending FlightAware ADS-B
Wed 05:08:04 AM 38.8550 -72.8764 339° North 410 472 20,100 -1,100 Descending FlightAware ADS-B
Wed 05:08:34 AM 38.9085 -72.9026 339° North 414 476 19,500 -1,180 Descending FlightAware ADS-B
Wed 05:09:05 AM 38.9641 -72.9299 339° North 412 474 18,900 -1,180 Descending FlightAware ADS-B
Wed 05:09:35 AM 39.0182 -72.9565 339° North 412 474 18,300 -1,100 Descending FlightAware ADS-B
Wed 05:10:05 AM 39.0713 -72.9827 339° North 405 466 17,800 -1,100 Descending FlightAware ADS-B
Wed 05:10:35 AM 39.1238 -73.0085 339° North 399 459 17,200 -1,180 Descending FlightAware ADS-B
Wed 05:11:06 AM 39.1754 -73.0340 339° North 394 453 16,600 -1,082 Descending FlightAware ADS-B
Wed 05:11:36 AM 39.2267 -73.0595 339° North 387 445 16,100 -1,100 Descending FlightAware ADS-B
Wed 05:12:06 AM 39.2767 -73.0843 339° North 383 441 15,500 -1,082 Descending FlightAware ADS-B
Wed 05:12:37 AM 39.3271 -73.1091 339° North 383 441 15,000 -1,065 Descending FlightAware ADS-B
Wed 05:13:08 AM 39.3784 -73.1346 339° North 384 442 14,400 -1,082 Descending FlightAware ADS-B
Wed 05:13:38 AM 39.4281 -73.1594 339° North 384 442 13,900 -1,100 Descending FlightAware ADS-B
Wed 05:14:08 AM 39.4777 -73.1842 339° North 382 440 13,300 -1,075 Descending FlightAware ADS-B
Wed 05:14:45 AM 39.5382 -73.2145 339° North 377 434 12,700 -1,012 Descending FlightAware ADS-B
Wed 05:15:31 AM 39.6129 -73.2519 339° North 373 429 11,900 -1,071 Descending FlightAware ADS-B
Wed 05:16:09 AM 39.6739 -73.2825 339° North 370 426 11,200 -1,043 Descending FlightAware ADS-B
Wed 05:16:40 AM 39.7239 -73.3076 339° North 372 428 10,700 -984 Descending FlightAware ADS-B
Wed 05:17:10 AM 39.7711 -73.3313 339° North 359 413 10,200 -1,034 Descending FlightAware ADS-B
Wed 05:17:38 AM 39.8135 -73.3527 339° North 356 410 9,700 -1,091 Descending FlightAware ADS-B
Wed 05:17:54 AM 39.8378 -73.3649 339° North 342 394 9,400 -1,091 Descending FlightAware ADS-B
Wed 05:18:11 AM 39.8616 -73.3769 339° North 333 383 9,100 -915 Descending FlightAware ADS-B
Wed 05:18:53 AM 39.9190 -73.4060 339° North 311 358 8,500 -804 Descending FlightAware ADS-B
Wed 05:19:48 AM 39.9901 -73.4421 338° Northwest 282 325 7,800 -771 Descending FlightAware ADS-B
Wed 05:20:03 AM 40.0083 -73.4514 339° North 276 318 7,600 -686 Descending FlightAware ADS-B
Wed 05:20:23 AM 40.0313 -73.4626 340° North 270 311 7,400 -581 Descending FlightAware ADS-B
Wed 05:20:34 AM 40.0445 -73.4677 344° North 269 310 7,300 -857 Descending FlightAware ADS-B
Wed 05:20:44 AM 40.0564 -73.4713 347° North 271 312 7,100 -692 Descending FlightAware ADS-B
Wed 05:21:00 AM 40.0767 -73.4759 350° North 275 316 7,000 -563 Descending FlightAware ADS-B
Wed 05:21:16 AM 40.0966 -73.4802 351° North 275 316 6,800 -387 Descending FlightAware ADS-B
Wed 05:21:31 AM 40.1161 -73.4844 351° North 277 319 6,800  Level FlightAware ADS-B
Wed 05:22:12 AM 40.1669 -73.4957 350° North 277 319 6,800 -627 Level FlightAware ADS-B
Wed 05:22:38 AM 40.1992 -73.5029 350° North 274 315 6,100 -1,333 Descending FlightAware ADS-B
Wed 05:22:57 AM 40.2234 -73.5085 350° North 273 314 5,800 -1,125 Descending FlightAware ADS-B
Wed 05:23:26 AM 40.2597 -73.5168 350° North 270 311 5,200 -1,304 Descending FlightAware ADS-B
Wed 05:23:43 AM 40.2795 -73.5212 350° North 269 310 4,800 -1,200 Descending FlightAware ADS-B
Wed 05:24:01 AM 40.3023 -73.5264 350° North 267 307 4,500 -1,059 Descending FlightAware ADS-B
Wed 05:24:17 AM 40.3213 -73.5307 350° North 264 304 4,200 -1,091 Descending FlightAware ADS-B
Wed 05:25:07 AM 40.3770 -73.5430 350° North 258 297 3,300 -1,135 Descending FlightAware ADS-B
Wed 05:25:31 AM 40.4080 -73.5500 350° North 255 293 2,800 -1,200 Descending FlightAware ADS-B
Wed 05:25:47 AM 40.4270 -73.5550 349° North 258 297 2,500 -750 Descending FlightAware ADS-B
Wed 05:26:11 AM 40.4550 -73.5610 351° North 255 293 2,300 -667 Descending FlightAware ADS-B
Wed 05:26:32 AM 40.4810 -73.5670 350° North 252 290 2,000 -750 Descending FlightAware ADS-B
Wed 05:26:51 AM 40.5010 -73.5720 349° North 252 290 1,800 -273 Descending FlightAware ADS-B
Wed 05:27:16 AM 40.5310 -73.5780 351° North 243 280 1,800  Level FlightAware ADS-B
Wed 05:27:41 AM 40.5540 -73.5840 349° North 243 280 1,800  Level FlightAware ADS-B
Wed 05:28:24 AM 40.5760 -73.6130 315° West 192 221 1,800  Level FlightAware ADS-B
Wed 05:28:32 AM 40.5870 -73.6330 306° West 189 217 1,800 -214 Level FlightAware ADS-B
Wed 05:28:52 AM 40.5940 -73.6520 296° West 171 197 1,700 -585 Descending FlightAware ADS-B
Wed 05:29:13 AM 40.6030 -73.6710 302° West 161 185 1,400 -833 Descending FlightAware ADS-B
Wed 05:29:28 AM 40.6090 -73.6820 306° West 156 180 1,200 -750 Descending FlightAware ADS-B
Wed 05:29:45 AM 40.6150 -73.6960 299° West 143 165 1,000 -706 Descending FlightAware ADS-B
Wed 05:30:02 AM 40.6210 -73.7080 303° West 140 161 800 -833 Descending FlightAware ADS-B
Wed 05:30:21 AM 40.6270 -73.7220 299° West 140 161 500 -818 Descending FlightAware ADS-B
Wed 05:30:46 AM 40.6350 -73.7410 299° West 140 161 200 -720 Descending FlightAware ADS-B
Wed 05:31:05 AM 40.6420 -73.7550 303° West 139 160 -632 Descending FlightAware ADS-B
Wed 05:31:18 AM 40.6460 -73.7640 300° West 143 165  Level FlightAware ADS-B
Wed 05:31:41 AM 40.6520 -73.7780 299° West 76 87  Level FlightAware ADS-B

Login

Don't have an account? Register now (free) for customized features, flight alerts, and more!